ADDS METAR Data INFO
IDs: Format: Raw Decoded Include TAF

Data at: 2030 UTC 20 Jul 2018

KIJD 201952Z AUTO 00000KT 10SM BKN060 28/14 A3013 RMK AO2 SLP200 T02830139
KIJD 201852Z AUTO 21007KT 10SM CLR 29/14 A3014 RMK AO2 SLP204 T02890144
KIJD 201752Z AUTO 18007KT 10SM CLR 28/14 A3016 RMK AO2 SLP210 T02830139 10289 20167
KIJD 201652Z AUTO 32004KT 10SM FEW055 27/14 A3017 RMK AO2 SLP214 T02720144 $
KIJD 201552Z AUTO 00000KT 10SM 27/15 A3018 RMK AO2 SLP216 T02720150 $
KIJD 201452Z AUTO 21004KT 10SM CLR 26/15 A3019 RMK AO2 SLP220 T02560150 55001
KIJD 201352Z AUTO 00000KT 10SM CLR 24/17 A3018 RMK AO2 SLP218 T02390172
KIJD 201252Z AUTO 00000KT 10SM CLR 20/17 A3019 RMK AO2 SLP221 T02000167
KIJD 201152Z AUTO 00000KT 10SM CLR 17/15 A3019 RMK AO2 SLP220 T01670150 10167 20128 53007
KIJD 201056Z AUTO 00000KT 9SM SCT002 14/13 A3018 RMK AO2 T01440133 $
KIJD 201052Z AUTO 00000KT 2SM BR BKN002 14/13 A3018 RMK AO2 SLP218 T01440133 $
KIJD 201045Z AUTO 00000KT 1 3/4SM BR OVC002 14/14 A3018 RMK AO2 T01390139 $
KIJD 200952Z AUTO 00000KT 10SM BKN002 13/12 A3017 RMK AO2 SLP216 T01330122 $
KIJD 200924Z AUTO 00000KT 10SM BKN002 13/13 A3017 RMK AO2 T01330128 $
KIJD 200852Z AUTO 00000KT 10SM SCT002 13/13 A3017 RMK AO2 SLP214 T01330128 51003 $
KIJD 200849Z AUTO 00000KT 10SM SCT002 13/13 A3017 RMK AO2 $
KIJD 200804Z AUTO 00000KT 10SM BKN002 14/13 A3016 RMK AO2 T01390128 $
KIJD 200752Z AUTO 00000KT 10SM FEW002 14/13 A3016 RMK AO2 SLP212 T01440133 $
KIJD 200652Z AUTO 00000KT 10SM FEW003 14/14 A3016 RMK AO2 SLP210 T01440139 $
KIJD 200640Z AUTO 00000KT 10SM FEW003 15/14 A3015 RMK AO2 T01500139 $
KIJD 200552Z AUTO 00000KT 10SM CLR 15/14 A3015 RMK AO2 SLP207 T01500144 10250 20150 $
KIJD 200452Z AUTO 03003KT 10SM 16/14 A3015 RMK AO2 SLP207 T01560144 402780117 $
KIJD 200352Z AUTO 04003KT 10SM CLR 17/15 A3014 RMK AO2 SLP205 T01670150
KIJD 200252Z AUTO 06004KT 10SM CLR 18/16 A3014 RMK AO2 SLP203 T01780156 51019
KIJD 200152Z AUTO 00000KT 10SM CLR 19/15 A3013 RMK AO2 SLP199 T01940150
KIJD 200052Z AUTO 18003KT 10SM CLR 22/14 A3010 RMK AO2 SLP191 T02220144
KIJD 192352Z AUTO 16004KT 10SM CLR 25/13 A3008 RMK AO2 SLP184 T02500128 10278 20244 53003
KIJD 192252Z AUTO 00000KT 10SM CLR 27/12 A3008 RMK AO2 SLP183 T02670117
KIJD 192152Z AUTO 32005KT 10SM CLR 27/11 A3007 RMK AO2 SLP182 T02670106
KIJD 192052Z AUTO VRB05KT 10SM CLR 27/10 A3007 RMK AO2 SLP182 T02670100 55006
KIJD 191952Z AUTO 29006KT 10SM CLR 27/10 A3007 RMK AO2 SLP181 T02670100
KIJD 191852Z AUTO 34005KT 10SM CLR 27/12 A3008 RMK AO2 SLP185 T02720117
KIJD 191752Z AUTO VRB06KT 10SM CLR 27/11 A3009 RMK AO2 SLP188 T02670111 10267 20172 58007
KIJD 191652Z AUTO VRB03KT 10SM CLR 26/10 A3010 RMK AO2 SLP192 T02560100
KIJD 191552Z AUTO 32005KT 10SM CLR 25/10 A3011 RMK AO2 SLP193 T02500100
KIJD 191452Z AUTO VRB04KT 10SM CLR 24/10 A3011 RMK AO2 SLP194 T02440100 51007
KIJD 191352Z AUTO 00000KT 10SM CLR 23/11 A3010 RMK AO2 SLP190 T02280111
KIJD 191252Z AUTO VRB03KT 10SM CLR 20/13 A3010 RMK AO2 SLP192 T02000128
KIJD 191152Z AUTO 00000KT 10SM CLR 17/12 A3009 RMK AO2 SLP187 7//// T01720122 10172 20117 51012
KIJD 191052Z AUTO 00000KT 10SM CLR 14/11 A3009 RMK AO2 SLP187 T01390111
KIJD 190952Z AUTO 00000KT 10SM CLR 12/11 A3007 RMK AO2 SLP183 T01220111
KIJD 190852Z AUTO 00000KT 10SM CLR 12/12 A3006 RMK AO2 SLP175 T01220117 53013